sensor_id;sensor_type;location;lat;lon;timestamp;temperature;humidity
7588;DHT22;3835;48.850;8.938;2023-12-20T00:00:21;5.70;99.90
7588;DHT22;3835;48.850;8.938;2023-12-20T00:02:48;5.60;99.90
7588;DHT22;3835;48.850;8.938;2023-12-20T00:05:15;5.60;99.90
7588;DHT22;3835;48.850;8.938;2023-12-20T00:07:41;5.50;99.90
7588;DHT22;3835;48.850;8.938;2023-12-20T00:10:09;5.50;99.90
7588;DHT22;3835;48.850;8.938;2023-12-20T00:12:35;5.50;99.90
7588;DHT22;3835;48.850;8.938;2023-12-20T00:15:02;5.50;99.90
7588;DHT22;3835;48.850;8.938;2023-12-20T00:17:31;5.50;99.90
7588;DHT22;3835;48.850;8.938;2023-12-20T00:19:58;5.40;99.90
7588;DHT22;3835;48.850;8.938;2023-12-20T00:22:24;5.30;99.90
7588;DHT22;3835;48.850;8.938;2023-12-20T00:24:51;5.30;99.90
7588;DHT22;3835;48.850;8.938;2023-12-20T00:27:18;5.30;99.90
7588;DHT22;3835;48.850;8.938;2023-12-20T00:29:45;5.30;99.90
7588;DHT22;3835;48.850;8.938;2023-12-20T00:32:15;5.30;99.90
7588;DHT22;3835;48.850;8.938;2023-12-20T00:34:43;5.40;99.90
7588;DHT22;3835;48.850;8.938;2023-12-20T00:37:10;5.30;99.90
7588;DHT22;3835;48.850;8.938;2023-12-20T00:39:37;5.30;99.90
7588;DHT22;3835;48.850;8.938;2023-12-20T00:42:04;5.20;99.90
7588;DHT22;3835;48.850;8.938;2023-12-20T00:44:31;5.20;99.90
7588;DHT22;3835;48.850;8.938;2023-12-20T00:46:58;5.20;99.90
7588;DHT22;3835;48.850;8.938;2023-12-20T00:49:26;5.20;99.90
7588;DHT22;3835;48.850;8.938;2023-12-20T00:51:55;5.20;99.90
7588;DHT22;3835;48.850;8.938;2023-12-20T00:54:21;5.20;99.90
7588;DHT22;3835;48.850;8.938;2023-12-20T00:56:48;5.30;99.90
7588;DHT22;3835;48.850;8.938;2023-12-20T00:59:16;5.20;99.90
7588;DHT22;3835;48.850;8.938;2023-12-20T01:01:44;5.30;99.90
7588;DHT22;3835;48.850;8.938;2023-12-20T01:04:11;5.10;99.90
7588;DHT22;3835;48.850;8.938;2023-12-20T01:06:38;5.20;99.90
7588;DHT22;3835;48.850;8.938;2023-12-20T01:09:06;5.30;99.90
7588;DHT22;3835;48.850;8.938;2023-12-20T01:11:33;5.30;99.90
7588;DHT22;3835;48.850;8.938;2023-12-20T01:13:59;5.10;99.90
7588;DHT22;3835;48.850;8.938;2023-12-20T01:16:26;5.20;99.90
7588;DHT22;3835;48.850;8.938;2023-12-20T01:18:53;5.20;99.90
7588;DHT22;3835;48.850;8.938;2023-12-20T01:21:20;5.30;99.90
7588;DHT22;3835;48.850;8.938;2023-12-20T01:23:47;5.50;99.90
7588;DHT22;3835;48.850;8.938;2023-12-20T01:26:16;5.50;99.90
7588;DHT22;3835;48.850;8.938;2023-12-20T01:28:43;5.70;99.90
7588;DHT22;3835;48.850;8.938;2023-12-20T01:31:10;5.70;99.90
7588;DHT22;3835;48.850;8.938;2023-12-20T01:33:36;5.80;99.90
7588;DHT22;3835;48.850;8.938;2023-12-20T01:36:04;5.90;99.90
7588;DHT22;3835;48.850;8.938;2023-12-20T01:38:31;5.90;99.90
7588;DHT22;3835;48.850;8.938;2023-12-20T01:40:58;6.00;99.90
7588;DHT22;3835;48.850;8.938;2023-12-20T01:43:27;5.90;99.90
7588;DHT22;3835;48.850;8.938;2023-12-20T01:45:55;6.00;99.90
7588;DHT22;3835;48.850;8.938;2023-12-20T01:48:22;6.10;99.90
7588;DHT22;3835;48.850;8.938;2023-12-20T01:50:50;6.00;99.90
7588;DHT22;3835;48.850;8.938;2023-12-20T01:53:19;5.90;99.90
7588;DHT22;3835;48.850;8.938;2023-12-20T01:55:48;6.10;99.90
7588;DHT22;3835;48.850;8.938;2023-12-20T01:58:15;5.90;99.90
7588;DHT22;3835;48.850;8.938;2023-12-20T02:00:44;6.10;99.90
7588;DHT22;3835;48.850;8.938;2023-12-20T02:03:11;5.90;99.90
7588;DHT22;3835;48.850;8.938;2023-12-20T02:05:39;5.90;99.90
7588;DHT22;3835;48.850;8.938;2023-12-20T02:08:06;6.10;99.90
7588;DHT22;3835;48.850;8.938;2023-12-20T02:10:34;5.90;99.90
7588;DHT22;3835;48.850;8.938;2023-12-20T02:13:01;5.80;99.90
7588;DHT22;3835;48.850;8.938;2023-12-20T02:15:28;5.70;99.90
7588;DHT22;3835;48.850;8.938;2023-12-20T02:17:56;5.60;99.90
7588;DHT22;3835;48.850;8.938;2023-12-20T02:20:23;5.70;99.90
7588;DHT22;3835;48.850;8.938;2023-12-20T02:22:51;5.80;99.90
7588;DHT22;3835;48.850;8.938;2023-12-20T02:25:18;5.60;99.90
7588;DHT22;3835;48.850;8.938;2023-12-20T02:27:45;5.60;99.90
7588;DHT22;3835;48.850;8.938;2023-12-20T02:30:12;5.50;99.90
7588;DHT22;3835;48.850;8.938;2023-12-20T02:32:39;5.50;99.90
7588;DHT22;3835;48.850;8.938;2023-12-20T02:35:06;5.40;99.90
7588;DHT22;3835;48.850;8.938;2023-12-20T02:37:33;5.40;99.90
7588;DHT22;3835;48.850;8.938;2023-12-20T02:40:01;5.40;99.90
7588;DHT22;3835;48.850;8.938;2023-12-20T02:42:29;5.30;99.90
7588;DHT22;3835;48.850;8.938;2023-12-20T02:44:56;5.30;99.90
7588;DHT22;3835;48.850;8.938;2023-12-20T02:47:23;5.30;99.90
7588;DHT22;3835;48.850;8.938;2023-12-20T02:49:50;5.20;99.90
7588;DHT22;3835;48.850;8.938;2023-12-20T02:52:18;5.20;99.90
7588;DHT22;3835;48.850;8.938;2023-12-20T02:54:45;5.20;99.90
7588;DHT22;3835;48.850;8.938;2023-12-20T02:57:13;5.10;99.90
7588;DHT22;3835;48.850;8.938;2023-12-20T02:59:40;5.10;99.90
7588;DHT22;3835;48.850;8.938;2023-12-20T03:02:07;5.20;99.90
7588;DHT22;3835;48.850;8.938;2023-12-20T03:04:34;5.10;99.90
7588;DHT22;3835;48.850;8.938;2023-12-20T03:07:00;5.00;99.90
7588;DHT22;3835;48.850;8.938;2023-12-20T03:09:27;4.90;99.90
7588;DHT22;3835;48.850;8.938;2023-12-20T03:11:54;5.20;99.90
7588;DHT22;3835;48.850;8.938;2023-12-20T03:14:22;5.00;99.90
7588;DHT22;3835;48.850;8.938;2023-12-20T03:16:49;4.90;99.90
7588;DHT22;3835;48.850;8.938;2023-12-20T03:19:17;4.90;99.90
7588;DHT22;3835;48.850;8.938;2023-12-20T03:21:44;4.90;99.90
7588;DHT22;3835;48.850;8.938;2023-12-20T03:24:11;4.90;99.90
7588;DHT22;3835;48.850;8.938;2023-12-20T03:26:38;4.90;99.90
7588;DHT22;3835;48.850;8.938;2023-12-20T03:29:05;4.90;99.90
7588;DHT22;3835;48.850;8.938;2023-12-20T03:31:33;4.90;99.90
7588;DHT22;3835;48.850;8.938;2023-12-20T03:34:00;4.90;99.90
7588;DHT22;3835;48.850;8.938;2023-12-20T03:36:26;4.70;99.90
7588;DHT22;3835;48.850;8.938;2023-12-20T03:38:53;4.80;99.90
7588;DHT22;3835;48.850;8.938;2023-12-20T03:41:20;4.90;99.90
7588;DHT22;3835;48.850;8.938;2023-12-20T03:43:47;4.70;99.90
7588;DHT22;3835;48.850;8.938;2023-12-20T03:46:14;4.70;99.90
7588;DHT22;3835;48.850;8.938;2023-12-20T03:48:42;4.70;99.90
7588;DHT22;3835;48.850;8.938;2023-12-20T03:51:09;4.70;99.90
7588;DHT22;3835;48.850;8.938;2023-12-20T03:53:35;5.10;99.90
7588;DHT22;3835;48.850;8.938;2023-12-20T03:56:02;5.00;99.90
7588;DHT22;3835;48.850;8.938;2023-12-20T03:58:29;4.70;99.90
7588;DHT22;3835;48.850;8.938;2023-12-20T04:00:56;4.70;99.90
7588;DHT22;3835;48.850;8.938;2023-12-20T04:03:23;4.70;99.90
7588;DHT22;3835;48.850;8.938;2023-12-20T04:05:51;5.00;99.90
7588;DHT22;3835;48.850;8.938;2023-12-20T04:08:18;4.50;99.90
7588;DHT22;3835;48.850;8.938;2023-12-20T04:10:44;4.80;99.90
7588;DHT22;3835;48.850;8.938;2023-12-20T04:13:11;4.50;99.90
7588;DHT22;3835;48.850;8.938;2023-12-20T04:15:37;4.60;99.90
7588;DHT22;3835;48.850;8.938;2023-12-20T04:18:05;4.50;99.90
7588;DHT22;3835;48.850;8.938;2023-12-20T04:20:31;4.60;99.90
7588;DHT22;3835;48.850;8.938;2023-12-20T04:23:00;4.70;99.90
7588;DHT22;3835;48.850;8.938;2023-12-20T04:25:26;4.50;99.90
7588;DHT22;3835;48.850;8.938;2023-12-20T04:27:53;4.70;99.90
7588;DHT22;3835;48.850;8.938;2023-12-20T04:30:20;4.60;99.90
7588;DHT22;3835;48.850;8.938;2023-12-20T04:32:47;4.60;99.90
7588;DHT22;3835;48.850;8.938;2023-12-20T04:35:14;4.60;99.90
7588;DHT22;3835;48.850;8.938;2023-12-20T04:37:41;4.70;99.90
7588;DHT22;3835;48.850;8.938;2023-12-20T04:40:10;4.60;99.90
7588;DHT22;3835;48.850;8.938;2023-12-20T04:42:37;4.60;99.90
7588;DHT22;3835;48.850;8.938;2023-12-20T04:45:05;5.20;99.90
7588;DHT22;3835;48.850;8.938;2023-12-20T04:47:32;4.70;99.90
7588;DHT22;3835;48.850;8.938;2023-12-20T04:49:58;4.70;99.90
7588;DHT22;3835;48.850;8.938;2023-12-20T04:52:26;4.80;99.90
7588;DHT22;3835;48.850;8.938;2023-12-20T04:54:52;4.70;99.90
7588;DHT22;3835;48.850;8.938;2023-12-20T04:57:21;5.20;99.90
7588;DHT22;3835;48.850;8.938;2023-12-20T04:59:48;4.70;99.90
7588;DHT22;3835;48.850;8.938;2023-12-20T05:02:15;4.70;99.90
7588;DHT22;3835;48.850;8.938;2023-12-20T05:04:42;4.70;99.90
7588;DHT22;3835;48.850;8.938;2023-12-20T05:07:09;4.70;99.90
7588;DHT22;3835;48.850;8.938;2023-12-20T05:09:36;4.80;99.90
7588;DHT22;3835;48.850;8.938;2023-12-20T05:12:03;4.90;99.90
7588;DHT22;3835;48.850;8.938;2023-12-20T05:14:32;4.80;99.90
7588;DHT22;3835;48.850;8.938;2023-12-20T05:16:58;5.10;99.90
7588;DHT22;3835;48.850;8.938;2023-12-20T05:19:25;4.80;99.90
7588;DHT22;3835;48.850;8.938;2023-12-20T05:21:52;4.80;99.90
7588;DHT22;3835;48.850;8.938;2023-12-20T05:24:19;4.80;99.90
7588;DHT22;3835;48.850;8.938;2023-12-20T05:26:47;4.80;99.90
7588;DHT22;3835;48.850;8.938;2023-12-20T05:29:14;4.80;99.90
7588;DHT22;3835;48.850;8.938;2023-12-20T05:31:42;5.00;99.90
7588;DHT22;3835;48.850;8.938;2023-12-20T05:34:09;4.80;99.90
7588;DHT22;3835;48.850;8.938;2023-12-20T05:36:36;4.80;99.90
7588;DHT22;3835;48.850;8.938;2023-12-20T05:39:04;4.80;99.90
7588;DHT22;3835;48.850;8.938;2023-12-20T05:41:31;4.90;99.90
7588;DHT22;3835;48.850;8.938;2023-12-20T05:43:58;5.20;99.90
7588;DHT22;3835;48.850;8.938;2023-12-20T05:46:25;4.90;99.90
7588;DHT22;3835;48.850;8.938;2023-12-20T05:48:54;4.80;99.90
7588;DHT22;3835;48.850;8.938;2023-12-20T05:51:21;4.80;99.90
7588;DHT22;3835;48.850;8.938;2023-12-20T05:53:48;4.80;99.90
7588;DHT22;3835;48.850;8.938;2023-12-20T05:56:15;4.90;99.90
7588;DHT22;3835;48.850;8.938;2023-12-20T05:58:42;4.80;99.90
7588;DHT22;3835;48.850;8.938;2023-12-20T06:01:09;4.90;99.90
7588;DHT22;3835;48.850;8.938;2023-12-20T06:03:36;5.00;99.90
7588;DHT22;3835;48.850;8.938;2023-12-20T06:06:06;4.90;99.90
7588;DHT22;3835;48.850;8.938;2023-12-20T06:08:33;4.90;99.90
7588;DHT22;3835;48.850;8.938;2023-12-20T06:11:00;4.90;99.90
7588;DHT22;3835;48.850;8.938;2023-12-20T06:13:27;4.90;99.90
7588;DHT22;3835;48.850;8.938;2023-12-20T06:15:54;4.90;99.90
7588;DHT22;3835;48.850;8.938;2023-12-20T06:18:22;4.80;99.90
7588;DHT22;3835;48.850;8.938;2023-12-20T06:20:50;5.00;99.90
7588;DHT22;3835;48.850;8.938;2023-12-20T06:23:18;5.10;99.90
7588;DHT22;3835;48.850;8.938;2023-12-20T06:25:45;5.10;99.90
7588;DHT22;3835;48.850;8.938;2023-12-20T06:28:12;4.90;99.90
7588;DHT22;3835;48.850;8.938;2023-12-20T06:30:40;4.90;99.90
7588;DHT22;3835;48.850;8.938;2023-12-20T06:33:06;5.00;99.90
7588;DHT22;3835;48.850;8.938;2023-12-20T06:35:35;5.10;99.90
7588;DHT22;3835;48.850;8.938;2023-12-20T06:38:02;5.00;99.90
7588;DHT22;3835;48.850;8.938;2023-12-20T06:40:30;5.00;99.90
7588;DHT22;3835;48.850;8.938;2023-12-20T06:42:57;5.20;99.90
7588;DHT22;3835;48.850;8.938;2023-12-20T06:45:25;5.30;99.90
7588;DHT22;3835;48.850;8.938;2023-12-20T06:47:51;5.00;99.90
7588;DHT22;3835;48.850;8.938;2023-12-20T06:50:20;4.90;99.90
7588;DHT22;3835;48.850;8.938;2023-12-20T06:52:47;4.90;99.90
7588;DHT22;3835;48.850;8.938;2023-12-20T06:55:13;4.90;99.90
7588;DHT22;3835;48.850;8.938;2023-12-20T06:57:42;4.80;99.90
7588;DHT22;3835;48.850;8.938;2023-12-20T07:00:12;4.90;99.90
7588;DHT22;3835;48.850;8.938;2023-12-20T07:02:39;4.90;99.90
7588;DHT22;3835;48.850;8.938;2023-12-20T07:05:07;4.80;99.90
7588;DHT22;3835;48.850;8.938;2023-12-20T07:07:34;4.80;99.90
7588;DHT22;3835;48.850;8.938;2023-12-20T07:10:00;4.80;99.90
7588;DHT22;3835;48.850;8.938;2023-12-20T07:12:27;5.00;99.90
7588;DHT22;3835;48.850;8.938;2023-12-20T07:14:56;4.70;99.90
7588;DHT22;3835;48.850;8.938;2023-12-20T07:17:23;5.00;99.90
7588;DHT22;3835;48.850;8.938;2023-12-20T07:19:49;4.90;99.90
7588;DHT22;3835;48.850;8.938;2023-12-20T07:22:16;5.40;99.90
7588;DHT22;3835;48.850;8.938;2023-12-20T07:24:43;4.60;99.90
7588;DHT22;3835;48.850;8.938;2023-12-20T07:27:10;5.20;99.90
7588;DHT22;3835;48.850;8.938;2023-12-20T07:29:37;4.80;99.90
7588;DHT22;3835;48.850;8.938;2023-12-20T07:32:06;4.80;99.90
7588;DHT22;3835;48.850;8.938;2023-12-20T07:34:33;4.60;99.90
7588;DHT22;3835;48.850;8.938;2023-12-20T07:37:00;4.50;99.90
7588;DHT22;3835;48.850;8.938;2023-12-20T07:39:26;4.60;99.90
7588;DHT22;3835;48.850;8.938;2023-12-20T07:41:53;4.50;99.90
7588;DHT22;3835;48.850;8.938;2023-12-20T07:44:20;4.70;99.90
7588;DHT22;3835;48.850;8.938;2023-12-20T07:46:47;4.50;99.90
7588;DHT22;3835;48.850;8.938;2023-12-20T07:49:15;4.50;99.90
7588;DHT22;3835;48.850;8.938;2023-12-20T07:51:42;4.40;99.90
7588;DHT22;3835;48.850;8.938;2023-12-20T07:54:09;4.30;99.90
7588;DHT22;3835;48.850;8.938;2023-12-20T07:56:36;4.30;99.90
7588;DHT22;3835;48.850;8.938;2023-12-20T07:59:02;4.60;99.90
7588;DHT22;3835;48.850;8.938;2023-12-20T08:01:29;4.40;99.90
7588;DHT22;3835;48.850;8.938;2023-12-20T08:03:56;4.20;99.90
7588;DHT22;3835;48.850;8.938;2023-12-20T08:06:25;4.40;99.90
7588;DHT22;3835;48.850;8.938;2023-12-20T08:08:52;4.40;99.90
7588;DHT22;3835;48.850;8.938;2023-12-20T08:11:19;4.20;99.90
7588;DHT22;3835;48.850;8.938;2023-12-20T08:13:46;4.10;99.90
7588;DHT22;3835;48.850;8.938;2023-12-20T08:16:12;4.30;99.90
7588;DHT22;3835;48.850;8.938;2023-12-20T08:18:41;4.00;99.90
7588;DHT22;3835;48.850;8.938;2023-12-20T08:21:08;4.10;99.90
7588;DHT22;3835;48.850;8.938;2023-12-20T08:23:36;4.30;99.90
7588;DHT22;3835;48.850;8.938;2023-12-20T08:26:04;4.10;99.90
7588;DHT22;3835;48.850;8.938;2023-12-20T08:28:31;4.10;99.90
7588;DHT22;3835;48.850;8.938;2023-12-20T08:30:58;4.60;99.90
7588;DHT22;3835;48.850;8.938;2023-12-20T08:33:25;4.10;99.90
7588;DHT22;3835;48.850;8.938;2023-12-20T08:35:52;4.90;99.90
7588;DHT22;3835;48.850;8.938;2023-12-20T08:38:18;4.20;99.90
7588;DHT22;3835;48.850;8.938;2023-12-20T08:40:47;4.80;99.90
7588;DHT22;3835;48.850;8.938;2023-12-20T08:43:14;4.20;99.90
7588;DHT22;3835;48.850;8.938;2023-12-20T08:45:41;4.40;99.90
7588;DHT22;3835;48.850;8.938;2023-12-20T08:48:08;4.30;99.90
7588;DHT22;3835;48.850;8.938;2023-12-20T08:50:35;4.50;99.90
7588;DHT22;3835;48.850;8.938;2023-12-20T08:53:02;4.50;99.90
7588;DHT22;3835;48.850;8.938;2023-12-20T08:55:29;4.50;99.90
7588;DHT22;3835;48.850;8.938;2023-12-20T08:57:58;4.60;99.90
7588;DHT22;3835;48.850;8.938;2023-12-20T09:00:25;4.70;99.90
7588;DHT22;3835;48.850;8.938;2023-12-20T09:02:53;4.40;99.90
7588;DHT22;3835;48.850;8.938;2023-12-20T09:05:20;4.60;99.90
7588;DHT22;3835;48.850;8.938;2023-12-20T09:07:47;4.60;99.90
7588;DHT22;3835;48.850;8.938;2023-12-20T09:10:14;4.60;99.90
7588;DHT22;3835;48.850;8.938;2023-12-20T09:12:41;4.50;99.90
7588;DHT22;3835;48.850;8.938;2023-12-20T09:15:09;4.70;99.90
7588;DHT22;3835;48.850;8.938;2023-12-20T09:17:36;4.70;99.90
7588;DHT22;3835;48.850;8.938;2023-12-20T09:20:04;4.60;99.90
7588;DHT22;3835;48.850;8.938;2023-12-20T09:22:32;4.60;99.90
7588;DHT22;3835;48.850;8.938;2023-12-20T09:24:59;4.70;99.90
7588;DHT22;3835;48.850;8.938;2023-12-20T09:27:27;5.10;99.90
7588;DHT22;3835;48.850;8.938;2023-12-20T09:29:54;4.70;99.90
7588;DHT22;3835;48.850;8.938;2023-12-20T09:32:22;5.20;99.90
7588;DHT22;3835;48.850;8.938;2023-12-20T09:34:49;4.70;99.90
7588;DHT22;3835;48.850;8.938;2023-12-20T09:37:16;4.70;99.90
7588;DHT22;3835;48.850;8.938;2023-12-20T09:39:42;4.70;99.90
7588;DHT22;3835;48.850;8.938;2023-12-20T09:42:12;5.00;99.90
7588;DHT22;3835;48.850;8.938;2023-12-20T09:44:43;4.80;99.90
7588;DHT22;3835;48.850;8.938;2023-12-20T09:47:10;5.10;99.90
7588;DHT22;3835;48.850;8.938;2023-12-20T09:49:38;5.10;99.90
7588;DHT22;3835;48.850;8.938;2023-12-20T09:52:07;4.90;99.90
7588;DHT22;3835;48.850;8.938;2023-12-20T09:54:36;4.90;99.90
7588;DHT22;3835;48.850;8.938;2023-12-20T09:57:03;4.90;99.90
7588;DHT22;3835;48.850;8.938;2023-12-20T09:59:30;4.90;99.90
7588;DHT22;3835;48.850;8.938;2023-12-20T10:01:57;5.00;99.90
7588;DHT22;3835;48.850;8.938;2023-12-20T10:04:24;4.80;99.90
7588;DHT22;3835;48.850;8.938;2023-12-20T10:06:52;5.20;99.90
7588;DHT22;3835;48.850;8.938;2023-12-20T10:09:19;4.70;99.90
7588;DHT22;3835;48.850;8.938;2023-12-20T10:11:46;4.70;99.90
7588;DHT22;3835;48.850;8.938;2023-12-20T10:14:13;4.70;99.90
7588;DHT22;3835;48.850;8.938;2023-12-20T10:16:41;4.60;99.90
7588;DHT22;3835;48.850;8.938;2023-12-20T10:19:08;4.60;99.90
7588;DHT22;3835;48.850;8.938;2023-12-20T10:21:34;4.60;99.90
7588;DHT22;3835;48.850;8.938;2023-12-20T10:24:03;4.70;99.90
7588;DHT22;3835;48.850;8.938;2023-12-20T10:26:30;4.70;99.90
7588;DHT22;3835;48.850;8.938;2023-12-20T10:29:00;4.80;99.90
7588;DHT22;3835;48.850;8.938;2023-12-20T10:31:28;4.90;99.90
7588;DHT22;3835;48.850;8.938;2023-12-20T10:33:57;5.50;99.90
7588;DHT22;3835;48.850;8.938;2023-12-20T10:36:25;5.00;99.90
7588;DHT22;3835;48.850;8.938;2023-12-20T10:38:53;5.10;99.90
7588;DHT22;3835;48.850;8.938;2023-12-20T10:41:25;5.10;99.90
7588;DHT22;3835;48.850;8.938;2023-12-20T10:43:55;5.20;99.90
7588;DHT22;3835;48.850;8.938;2023-12-20T10:46:22;5.20;99.90
7588;DHT22;3835;48.850;8.938;2023-12-20T10:48:53;5.40;99.90
7588;DHT22;3835;48.850;8.938;2023-12-20T10:51:20;5.40;99.90
7588;DHT22;3835;48.850;8.938;2023-12-20T10:53:48;5.30;99.90
7588;DHT22;3835;48.850;8.938;2023-12-20T10:56:17;5.10;99.90
7588;DHT22;3835;48.850;8.938;2023-12-20T10:58:47;4.90;99.90
7588;DHT22;3835;48.850;8.938;2023-12-20T11:01:16;4.90;99.90
7588;DHT22;3835;48.850;8.938;2023-12-20T11:03:48;4.80;99.90
7588;DHT22;3835;48.850;8.938;2023-12-20T11:06:24;4.70;99.90
7588;DHT22;3835;48.850;8.938;2023-12-20T11:09:01;4.60;99.90
7588;DHT22;3835;48.850;8.938;2023-12-20T11:11:39;4.70;99.90
7588;DHT22;3835;48.850;8.938;2023-12-20T11:14:16;4.60;99.90
7588;DHT22;3835;48.850;8.938;2023-12-20T11:16:45;4.70;99.90
7588;DHT22;3835;48.850;8.938;2023-12-20T11:19:12;4.70;99.90
7588;DHT22;3835;48.850;8.938;2023-12-20T11:21:40;4.70;99.90
7588;DHT22;3835;48.850;8.938;2023-12-20T11:24:07;4.80;99.90
7588;DHT22;3835;48.850;8.938;2023-12-20T11:26:34;5.30;99.90
7588;DHT22;3835;48.850;8.938;2023-12-20T11:29:33;4.90;99.90
7588;DHT22;3835;48.850;8.938;2023-12-20T11:32:01;5.00;99.90
7588;DHT22;3835;48.850;8.938;2023-12-20T11:34:31;5.00;99.90
7588;DHT22;3835;48.850;8.938;2023-12-20T11:36:59;5.20;99.90
7588;DHT22;3835;48.850;8.938;2023-12-20T11:39:27;5.20;99.90
7588;DHT22;3835;48.850;8.938;2023-12-20T11:41:55;5.10;99.90
7588;DHT22;3835;48.850;8.938;2023-12-20T11:44:24;5.20;99.90
7588;DHT22;3835;48.850;8.938;2023-12-20T11:46:54;5.30;99.90
7588;DHT22;3835;48.850;8.938;2023-12-20T11:49:23;5.30;99.90
7588;DHT22;3835;48.850;8.938;2023-12-20T11:51:51;5.60;99.90
7588;DHT22;3835;48.850;8.938;2023-12-20T11:54:17;5.70;99.90
7588;DHT22;3835;48.850;8.938;2023-12-20T11:56:45;5.90;99.90
7588;DHT22;3835;48.850;8.938;2023-12-20T11:59:12;5.90;99.90
7588;DHT22;3835;48.850;8.938;2023-12-20T12:01:39;5.80;99.90
7588;DHT22;3835;48.850;8.938;2023-12-20T12:04:07;5.60;99.90
7588;DHT22;3835;48.850;8.938;2023-12-20T12:06:34;5.70;99.90
7588;DHT22;3835;48.850;8.938;2023-12-20T12:09:01;5.80;99.90
7588;DHT22;3835;48.850;8.938;2023-12-20T12:11:29;6.10;99.90
7588;DHT22;3835;48.850;8.938;2023-12-20T12:13:56;5.90;99.90
7588;DHT22;3835;48.850;8.938;2023-12-20T12:16:23;5.90;99.90
7588;DHT22;3835;48.850;8.938;2023-12-20T12:18:56;5.70;99.90
7588;DHT22;3835;48.850;8.938;2023-12-20T12:21:24;5.50;99.90
7588;DHT22;3835;48.850;8.938;2023-12-20T12:23:51;5.50;99.90
7588;DHT22;3835;48.850;8.938;2023-12-20T12:26:18;5.70;99.90
7588;DHT22;3835;48.850;8.938;2023-12-20T12:28:45;5.50;99.90
7588;DHT22;3835;48.850;8.938;2023-12-20T12:31:16;5.70;99.90
7588;DHT22;3835;48.850;8.938;2023-12-20T12:33:43;5.60;99.90
7588;DHT22;3835;48.850;8.938;2023-12-20T12:36:10;5.50;99.90
7588;DHT22;3835;48.850;8.938;2023-12-20T12:38:39;5.50;99.90
7588;DHT22;3835;48.850;8.938;2023-12-20T12:41:06;5.30;99.90
7588;DHT22;3835;48.850;8.938;2023-12-20T12:43:33;5.20;99.90
7588;DHT22;3835;48.850;8.938;2023-12-20T12:46:00;5.20;99.90
7588;DHT22;3835;48.850;8.938;2023-12-20T12:48:27;5.30;99.90
7588;DHT22;3835;48.850;8.938;2023-12-20T12:50:54;5.30;99.90
7588;DHT22;3835;48.850;8.938;2023-12-20T12:53:24;5.30;99.90
7588;DHT22;3835;48.850;8.938;2023-12-20T12:55:53;5.60;99.90
7588;DHT22;3835;48.850;8.938;2023-12-20T12:58:21;5.10;99.90
7588;DHT22;3835;48.850;8.938;2023-12-20T13:00:48;5.20;99.90
7588;DHT22;3835;48.850;8.938;2023-12-20T13:03:14;5.20;99.90
7588;DHT22;3835;48.850;8.938;2023-12-20T13:05:42;5.20;99.90
7588;DHT22;3835;48.850;8.938;2023-12-20T13:08:09;5.40;99.90
7588;DHT22;3835;48.850;8.938;2023-12-20T13:10:37;5.40;99.90
7588;DHT22;3835;48.850;8.938;2023-12-20T13:13:05;5.40;99.90
7588;DHT22;3835;48.850;8.938;2023-12-20T13:15:32;5.40;99.90
7588;DHT22;3835;48.850;8.938;2023-12-20T13:17:59;5.70;99.90
7588;DHT22;3835;48.850;8.938;2023-12-20T13:20:26;5.60;99.90
7588;DHT22;3835;48.850;8.938;2023-12-20T13:22:53;5.60;99.90
7588;DHT22;3835;48.850;8.938;2023-12-20T13:25:20;5.60;99.90
7588;DHT22;3835;48.850;8.938;2023-12-20T13:27:47;5.40;99.90
7588;DHT22;3835;48.850;8.938;2023-12-20T13:30:16;5.20;99.90
7588;DHT22;3835;48.850;8.938;2023-12-20T13:32:44;5.20;99.90
7588;DHT22;3835;48.850;8.938;2023-12-20T13:35:10;5.10;99.90
7588;DHT22;3835;48.850;8.938;2023-12-20T13:37:38;5.30;99.90
7588;DHT22;3835;48.850;8.938;2023-12-20T13:40:06;5.20;99.90
7588;DHT22;3835;48.850;8.938;2023-12-20T13:42:34;5.00;99.90
7588;DHT22;3835;48.850;8.938;2023-12-20T13:45:01;5.10;99.90
7588;DHT22;3835;48.850;8.938;2023-12-20T13:47:31;5.10;99.90
7588;DHT22;3835;48.850;8.938;2023-12-20T13:49:58;5.10;99.90
7588;DHT22;3835;48.850;8.938;2023-12-20T13:52:25;4.90;99.90
7588;DHT22;3835;48.850;8.938;2023-12-20T13:54:52;5.00;99.90
7588;DHT22;3835;48.850;8.938;2023-12-20T13:57:19;5.20;99.90
7588;DHT22;3835;48.850;8.938;2023-12-20T13:59:45;5.10;99.90
7588;DHT22;3835;48.850;8.938;2023-12-20T14:02:12;4.90;99.90
7588;DHT22;3835;48.850;8.938;2023-12-20T14:04:41;4.80;99.90
7588;DHT22;3835;48.850;8.938;2023-12-20T14:07:07;4.80;99.90
7588;DHT22;3835;48.850;8.938;2023-12-20T14:09:35;5.40;99.90
7588;DHT22;3835;48.850;8.938;2023-12-20T14:12:02;4.90;99.90
7588;DHT22;3835;48.850;8.938;2023-12-20T14:14:29;4.80;99.90
7588;DHT22;3835;48.850;8.938;2023-12-20T14:16:56;4.80;99.90
7588;DHT22;3835;48.850;8.938;2023-12-20T14:19:23;4.60;99.90
7588;DHT22;3835;48.850;8.938;2023-12-20T14:21:51;4.80;99.90
7588;DHT22;3835;48.850;8.938;2023-12-20T14:24:18;5.20;99.90
7588;DHT22;3835;48.850;8.938;2023-12-20T14:26:45;4.80;99.90
7588;DHT22;3835;48.850;8.938;2023-12-20T14:29:11;4.70;99.90
7588;DHT22;3835;48.850;8.938;2023-12-20T14:31:38;4.70;99.90
7588;DHT22;3835;48.850;8.938;2023-12-20T14:34:06;4.80;99.90
7588;DHT22;3835;48.850;8.938;2023-12-20T14:36:34;4.70;99.90
7588;DHT22;3835;48.850;8.938;2023-12-20T14:39:02;4.80;99.90
7588;DHT22;3835;48.850;8.938;2023-12-20T14:41:30;4.80;99.90
7588;DHT22;3835;48.850;8.938;2023-12-20T14:43:56;4.70;99.90
7588;DHT22;3835;48.850;8.938;2023-12-20T14:46:25;4.60;99.90
7588;DHT22;3835;48.850;8.938;2023-12-20T14:48:52;4.50;99.90
7588;DHT22;3835;48.850;8.938;2023-12-20T14:51:19;4.60;99.90
7588;DHT22;3835;48.850;8.938;2023-12-20T14:53:46;4.70;99.90
7588;DHT22;3835;48.850;8.938;2023-12-20T14:56:14;4.80;99.90
7588;DHT22;3835;48.850;8.938;2023-12-20T14:58:41;4.60;99.90
7588;DHT22;3835;48.850;8.938;2023-12-20T15:01:11;4.60;99.90
7588;DHT22;3835;48.850;8.938;2023-12-20T15:03:38;4.60;99.90
7588;DHT22;3835;48.850;8.938;2023-12-20T15:06:05;4.60;99.90
7588;DHT22;3835;48.850;8.938;2023-12-20T15:08:35;4.60;99.90
7588;DHT22;3835;48.850;8.938;2023-12-20T15:11:01;4.90;99.90
7588;DHT22;3835;48.850;8.938;2023-12-20T15:13:31;5.10;99.90
7588;DHT22;3835;48.850;8.938;2023-12-20T15:15:58;4.70;99.90
7588;DHT22;3835;48.850;8.938;2023-12-20T15:18:25;4.60;99.90
7588;DHT22;3835;48.850;8.938;2023-12-20T15:20:52;4.60;99.90
7588;DHT22;3835;48.850;8.938;2023-12-20T15:23:19;5.00;99.90
7588;DHT22;3835;48.850;8.938;2023-12-20T15:25:51;4.70;99.90
7588;DHT22;3835;48.850;8.938;2023-12-20T15:28:18;4.70;99.90
7588;DHT22;3835;48.850;8.938;2023-12-20T15:30:46;5.00;99.90
7588;DHT22;3835;48.850;8.938;2023-12-20T15:33:13;4.60;99.90
7588;DHT22;3835;48.850;8.938;2023-12-20T15:35:40;4.60;99.90
7588;DHT22;3835;48.850;8.938;2023-12-20T15:38:07;4.50;99.90
7588;DHT22;3835;48.850;8.938;2023-12-20T15:40:34;4.50;99.90
7588;DHT22;3835;48.850;8.938;2023-12-20T15:43:01;4.60;99.90
7588;DHT22;3835;48.850;8.938;2023-12-20T15:45:28;4.50;99.90
7588;DHT22;3835;48.850;8.938;2023-12-20T15:47:56;4.50;99.90
7588;DHT22;3835;48.850;8.938;2023-12-20T15:50:23;5.00;99.90
7588;DHT22;3835;48.850;8.938;2023-12-20T15:52:50;4.70;99.90
7588;DHT22;3835;48.850;8.938;2023-12-20T15:55:17;4.50;99.90
7588;DHT22;3835;48.850;8.938;2023-12-20T15:57:43;4.40;99.90
7588;DHT22;3835;48.850;8.938;2023-12-20T16:00:11;4.50;99.90
7588;DHT22;3835;48.850;8.938;2023-12-20T16:02:37;4.10;99.90
7588;DHT22;3835;48.850;8.938;2023-12-20T16:05:06;3.90;99.90
7588;DHT22;3835;48.850;8.938;2023-12-20T16:07:33;4.10;99.90
7588;DHT22;3835;48.850;8.938;2023-12-20T16:10:00;4.30;99.90
7588;DHT22;3835;48.850;8.938;2023-12-20T16:12:27;4.10;99.90
7588;DHT22;3835;48.850;8.938;2023-12-20T16:14:53;4.50;99.90
7588;DHT22;3835;48.850;8.938;2023-12-20T16:17:20;4.10;99.90